sensor_id;sensor_type;location;lat;lon;timestamp;temperature;humidity
50969;DHT22;36982;51.474;7.228;2023-06-14T00:01:17;18.80;99.90
50969;DHT22;36982;51.474;7.228;2023-06-14T00:03:45;18.70;99.90
50969;DHT22;36982;51.474;7.228;2023-06-14T00:06:12;18.70;99.90
50969;DHT22;36982;51.474;7.228;2023-06-14T00:08:38;18.70;99.90
50969;DHT22;36982;51.474;7.228;2023-06-14T00:11:05;18.60;99.90
50969;DHT22;36982;51.474;7.228;2023-06-14T00:13:31;18.50;99.90
50969;DHT22;36982;51.474;7.228;2023-06-14T00:15:56;18.50;99.90
50969;DHT22;36982;51.474;7.228;2023-06-14T00:18:22;18.50;99.90
50969;DHT22;36982;51.474;7.228;2023-06-14T00:20:49;18.40;99.90
50969;DHT22;36982;51.474;7.228;2023-06-14T00:23:15;18.50;99.90
50969;DHT22;36982;51.474;7.228;2023-06-14T00:25:40;18.30;99.90
50969;DHT22;36982;51.474;7.228;2023-06-14T00:28:06;18.30;99.90
50969;DHT22;36982;51.474;7.228;2023-06-14T00:30:32;18.20;99.90
50969;DHT22;36982;51.474;7.228;2023-06-14T00:32:57;18.10;99.90
50969;DHT22;36982;51.474;7.228;2023-06-14T00:35:23;18.10;99.90
50969;DHT22;36982;51.474;7.228;2023-06-14T00:37:49;17.90;99.90
50969;DHT22;36982;51.474;7.228;2023-06-14T00:40:14;18.00;99.90
50969;DHT22;36982;51.474;7.228;2023-06-14T00:42:40;17.90;99.90
50969;DHT22;36982;51.474;7.228;2023-06-14T00:45:06;17.90;99.90
50969;DHT22;36982;51.474;7.228;2023-06-14T00:47:32;17.90;99.90
50969;DHT22;36982;51.474;7.228;2023-06-14T00:49:58;17.90;99.90
50969;DHT22;36982;51.474;7.228;2023-06-14T00:52:25;17.90;99.90
50969;DHT22;36982;51.474;7.228;2023-06-14T00:54:51;17.90;99.90
50969;DHT22;36982;51.474;7.228;2023-06-14T00:57:17;17.90;99.90
50969;DHT22;36982;51.474;7.228;2023-06-14T00:59:45;17.80;99.90
50969;DHT22;36982;51.474;7.228;2023-06-14T01:02:12;17.70;99.90
50969;DHT22;36982;51.474;7.228;2023-06-14T01:04:39;17.90;99.90
50969;DHT22;36982;51.474;7.228;2023-06-14T01:13:27;17.60;99.90
50969;DHT22;36982;51.474;7.228;2023-06-14T01:15:45;17.60;99.90
50969;DHT22;36982;51.474;7.228;2023-06-14T01:18:11;17.60;99.90
50969;DHT22;36982;51.474;7.228;2023-06-14T01:20:43;17.50;99.90
50969;DHT22;36982;51.474;7.228;2023-06-14T01:23:11;17.60;99.90
50969;DHT22;36982;51.474;7.228;2023-06-14T01:25:39;17.60;99.90
50969;DHT22;36982;51.474;7.228;2023-06-14T01:28:06;17.50;99.90
50969;DHT22;36982;51.474;7.228;2023-06-14T01:30:39;17.50;99.90
50969;DHT22;36982;51.474;7.228;2023-06-14T01:33:17;17.30;99.90
50969;DHT22;36982;51.474;7.228;2023-06-14T01:35:47;17.30;99.90
50969;DHT22;36982;51.474;7.228;2023-06-14T01:38:13;17.40;99.90
50969;DHT22;36982;51.474;7.228;2023-06-14T01:40:39;17.20;99.90
50969;DHT22;36982;51.474;7.228;2023-06-14T01:43:06;17.20;99.90
50969;DHT22;36982;51.474;7.228;2023-06-14T01:45:33;17.00;99.90
50969;DHT22;36982;51.474;7.228;2023-06-14T01:48:00;17.10;99.90
50969;DHT22;36982;51.474;7.228;2023-06-14T01:50:30;17.30;99.90
50969;DHT22;36982;51.474;7.228;2023-06-14T01:52:56;17.00;99.90
50969;DHT22;36982;51.474;7.228;2023-06-14T01:55:22;17.00;99.90
50969;DHT22;36982;51.474;7.228;2023-06-14T01:57:48;17.00;99.90
50969;DHT22;36982;51.474;7.228;2023-06-14T02:00:14;17.00;99.90
50969;DHT22;36982;51.474;7.228;2023-06-14T02:02:41;16.90;99.90
50969;DHT22;36982;51.474;7.228;2023-06-14T02:05:07;16.90;99.90
50969;DHT22;36982;51.474;7.228;2023-06-14T02:07:33;16.80;99.90
50969;DHT22;36982;51.474;7.228;2023-06-14T02:09:59;16.80;99.90
50969;DHT22;36982;51.474;7.228;2023-06-14T02:12:24;16.70;99.90
50969;DHT22;36982;51.474;7.228;2023-06-14T02:14:50;16.70;99.90
50969;DHT22;36982;51.474;7.228;2023-06-14T02:17:16;16.70;99.90
50969;DHT22;36982;51.474;7.228;2023-06-14T02:19:42;16.70;99.90
50969;DHT22;36982;51.474;7.228;2023-06-14T02:22:08;16.60;99.90
50969;DHT22;36982;51.474;7.228;2023-06-14T02:24:34;16.60;99.90
50969;DHT22;36982;51.474;7.228;2023-06-14T02:27:01;16.60;99.90
50969;DHT22;36982;51.474;7.228;2023-06-14T02:29:27;16.50;99.90
50969;DHT22;36982;51.474;7.228;2023-06-14T02:31:52;16.50;99.90
50969;DHT22;36982;51.474;7.228;2023-06-14T02:34:18;16.40;99.90
50969;DHT22;36982;51.474;7.228;2023-06-14T02:36:45;16.40;99.90
50969;DHT22;36982;51.474;7.228;2023-06-14T02:39:11;16.30;99.90
50969;DHT22;36982;51.474;7.228;2023-06-14T02:41:37;16.30;99.90
50969;DHT22;36982;51.474;7.228;2023-06-14T02:44:03;16.20;99.90
50969;DHT22;36982;51.474;7.228;2023-06-14T02:46:28;16.30;99.90
50969;DHT22;36982;51.474;7.228;2023-06-14T02:48:54;16.30;99.90
50969;DHT22;36982;51.474;7.228;2023-06-14T02:51:20;16.30;99.90
50969;DHT22;36982;51.474;7.228;2023-06-14T02:53:45;16.20;99.90
50969;DHT22;36982;51.474;7.228;2023-06-14T02:56:11;16.30;99.90
50969;DHT22;36982;51.474;7.228;2023-06-14T02:58:37;16.30;99.90
50969;DHT22;36982;51.474;7.228;2023-06-14T03:01:04;16.30;99.90
50969;DHT22;36982;51.474;7.228;2023-06-14T03:03:31;16.30;99.90
50969;DHT22;36982;51.474;7.228;2023-06-14T03:05:57;16.30;99.90
50969;DHT22;36982;51.474;7.228;2023-06-14T03:08:23;16.20;99.90
50969;DHT22;36982;51.474;7.228;2023-06-14T03:10:53;16.10;99.90
50969;DHT22;36982;51.474;7.228;2023-06-14T03:13:18;16.00;99.90
50969;DHT22;36982;51.474;7.228;2023-06-14T03:15:46;16.10;99.90
50969;DHT22;36982;51.474;7.228;2023-06-14T03:18:13;15.90;99.90
50969;DHT22;36982;51.474;7.228;2023-06-14T03:20:40;16.00;99.90
50969;DHT22;36982;51.474;7.228;2023-06-14T03:23:06;16.00;99.90
50969;DHT22;36982;51.474;7.228;2023-06-14T03:25:32;15.90;99.90
50969;DHT22;36982;51.474;7.228;2023-06-14T03:28:06;16.00;99.90
50969;DHT22;36982;51.474;7.228;2023-06-14T03:30:32;16.00;99.90
50969;DHT22;36982;51.474;7.228;2023-06-14T03:32:58;15.90;99.90
50969;DHT22;36982;51.474;7.228;2023-06-14T03:35:26;15.90;99.90
50969;DHT22;36982;51.474;7.228;2023-06-14T03:37:52;15.80;99.90
50969;DHT22;36982;51.474;7.228;2023-06-14T03:40:18;15.80;99.90
50969;DHT22;36982;51.474;7.228;2023-06-14T03:42:45;15.70;99.90
50969;DHT22;36982;51.474;7.228;2023-06-14T03:45:10;15.70;99.90
50969;DHT22;36982;51.474;7.228;2023-06-14T03:47:36;15.70;99.90
50969;DHT22;36982;51.474;7.228;2023-06-14T03:50:02;15.80;99.90
50969;DHT22;36982;51.474;7.228;2023-06-14T03:52:28;15.70;99.90
50969;DHT22;36982;51.474;7.228;2023-06-14T03:54:54;15.70;99.90
50969;DHT22;36982;51.474;7.228;2023-06-14T03:57:21;15.60;99.90
50969;DHT22;36982;51.474;7.228;2023-06-14T03:59:47;15.80;99.90
50969;DHT22;36982;51.474;7.228;2023-06-14T04:02:12;15.60;99.90
50969;DHT22;36982;51.474;7.228;2023-06-14T04:04:42;15.70;99.90
50969;DHT22;36982;51.474;7.228;2023-06-14T04:07:10;15.80;99.90
50969;DHT22;36982;51.474;7.228;2023-06-14T04:09:37;15.70;99.90
50969;DHT22;36982;51.474;7.228;2023-06-14T04:12:03;15.80;99.90
50969;DHT22;36982;51.474;7.228;2023-06-14T04:14:28;15.80;99.90
50969;DHT22;36982;51.474;7.228;2023-06-14T04:16:56;15.70;99.90
50969;DHT22;36982;51.474;7.228;2023-06-14T04:19:21;15.70;99.90
50969;DHT22;36982;51.474;7.228;2023-06-14T04:21:47;15.90;99.90
50969;DHT22;36982;51.474;7.228;2023-06-14T04:24:12;15.80;99.90
50969;DHT22;36982;51.474;7.228;2023-06-14T04:26:41;16.00;99.90
50969;DHT22;36982;51.474;7.228;2023-06-14T04:29:31;16.00;99.90
50969;DHT22;36982;51.474;7.228;2023-06-14T04:31:57;16.10;99.90
50969;DHT22;36982;51.474;7.228;2023-06-14T04:34:26;16.10;99.90
50969;DHT22;36982;51.474;7.228;2023-06-14T04:36:55;16.00;99.90
50969;DHT22;36982;51.474;7.228;2023-06-14T04:39:22;16.10;99.90
50969;DHT22;36982;51.474;7.228;2023-06-14T04:41:48;16.10;99.90
50969;DHT22;36982;51.474;7.228;2023-06-14T04:44:17;16.10;99.90
50969;DHT22;36982;51.474;7.228;2023-06-14T04:46:43;16.20;99.90
50969;DHT22;36982;51.474;7.228;2023-06-14T04:49:15;16.30;99.90
50969;DHT22;36982;51.474;7.228;2023-06-14T04:51:41;16.30;99.90
50969;DHT22;36982;51.474;7.228;2023-06-14T04:54:11;16.40;99.90
50969;DHT22;36982;51.474;7.228;2023-06-14T04:56:42;16.40;99.90
50969;DHT22;36982;51.474;7.228;2023-06-14T04:59:08;16.40;99.90
50969;DHT22;36982;51.474;7.228;2023-06-14T05:01:34;16.60;99.90
50969;DHT22;36982;51.474;7.228;2023-06-14T05:04:00;16.80;99.90
50969;DHT22;36982;51.474;7.228;2023-06-14T05:06:26;17.00;99.90
50969;DHT22;36982;51.474;7.228;2023-06-14T05:08:53;17.80;99.90
50969;DHT22;36982;51.474;7.228;2023-06-14T05:11:25;18.70;99.90
50969;DHT22;36982;51.474;7.228;2023-06-14T05:13:52;19.60;99.90
50969;DHT22;36982;51.474;7.228;2023-06-14T05:16:17;19.90;99.90
50969;DHT22;36982;51.474;7.228;2023-06-14T05:18:45;20.40;99.90
50969;DHT22;36982;51.474;7.228;2023-06-14T05:21:11;21.00;99.90
50969;DHT22;36982;51.474;7.228;2023-06-14T05:23:37;21.40;99.90
50969;DHT22;36982;51.474;7.228;2023-06-14T05:26:02;21.60;99.90
50969;DHT22;36982;51.474;7.228;2023-06-14T05:28:29;21.40;99.90
50969;DHT22;36982;51.474;7.228;2023-06-14T05:30:56;21.30;99.90
50969;DHT22;36982;51.474;7.228;2023-06-14T05:33:21;21.40;99.90
50969;DHT22;36982;51.474;7.228;2023-06-14T05:35:47;21.70;99.90
50969;DHT22;36982;51.474;7.228;2023-06-14T05:38:13;22.20;99.90
50969;DHT22;36982;51.474;7.228;2023-06-14T05:40:38;22.40;99.90
50969;DHT22;36982;51.474;7.228;2023-06-14T05:43:04;22.50;99.90
50969;DHT22;36982;51.474;7.228;2023-06-14T05:45:29;23.00;99.90
50969;DHT22;36982;51.474;7.228;2023-06-14T05:47:55;22.80;99.90
50969;DHT22;36982;51.474;7.228;2023-06-14T05:50:21;23.30;99.90
50969;DHT22;36982;51.474;7.228;2023-06-14T05:52:46;23.40;99.90
50969;DHT22;36982;51.474;7.228;2023-06-14T05:55:12;23.50;99.90
50969;DHT22;36982;51.474;7.228;2023-06-14T05:57:38;23.30;99.90
50969;DHT22;36982;51.474;7.228;2023-06-14T06:00:24;23.30;99.90
50969;DHT22;36982;51.474;7.228;2023-06-14T06:02:50;23.50;99.90
50969;DHT22;36982;51.474;7.228;2023-06-14T06:05:15;23.80;99.90
50969;DHT22;36982;51.474;7.228;2023-06-14T06:07:41;24.30;99.90
50969;DHT22;36982;51.474;7.228;2023-06-14T06:10:09;24.50;99.90
50969;DHT22;36982;51.474;7.228;2023-06-14T06:12:35;24.10;99.90
50969;DHT22;36982;51.474;7.228;2023-06-14T06:15:00;23.80;99.90
50969;DHT22;36982;51.474;7.228;2023-06-14T06:17:26;24.30;99.90
50969;DHT22;36982;51.474;7.228;2023-06-14T06:19:52;24.10;99.90
50969;DHT22;36982;51.474;7.228;2023-06-14T06:22:17;24.30;99.90
50969;DHT22;36982;51.474;7.228;2023-06-14T06:24:43;24.10;99.90
50969;DHT22;36982;51.474;7.228;2023-06-14T06:27:09;24.30;99.90
50969;DHT22;36982;51.474;7.228;2023-06-14T06:29:35;24.00;99.90
50969;DHT22;36982;51.474;7.228;2023-06-14T06:32:00;23.90;99.90
50969;DHT22;36982;51.474;7.228;2023-06-14T06:34:27;24.10;99.90
50969;DHT22;36982;51.474;7.228;2023-06-14T06:36:52;24.00;99.90
50969;DHT22;36982;51.474;7.228;2023-06-14T06:39:18;23.90;99.90
50969;DHT22;36982;51.474;7.228;2023-06-14T06:41:43;23.80;99.90
50969;DHT22;36982;51.474;7.228;2023-06-14T06:44:09;23.90;99.90
50969;DHT22;36982;51.474;7.228;2023-06-14T06:46:38;24.00;99.90
50969;DHT22;36982;51.474;7.228;2023-06-14T06:49:06;23.70;99.90
50969;DHT22;36982;51.474;7.228;2023-06-14T06:51:32;23.50;99.90
50969;DHT22;36982;51.474;7.228;2023-06-14T06:53:58;23.40;99.90
50969;DHT22;36982;51.474;7.228;2023-06-14T06:56:24;23.30;99.90
50969;DHT22;36982;51.474;7.228;2023-06-14T06:58:50;23.20;99.90
50969;DHT22;36982;51.474;7.228;2023-06-14T07:01:16;23.10;99.90
50969;DHT22;36982;51.474;7.228;2023-06-14T07:03:42;22.80;99.90
50969;DHT22;36982;51.474;7.228;2023-06-14T07:06:08;22.10;99.90
50969;DHT22;36982;51.474;7.228;2023-06-14T07:08:33;21.80;99.90
50969;DHT22;36982;51.474;7.228;2023-06-14T07:10:59;21.40;99.90
50969;DHT22;36982;51.474;7.228;2023-06-14T07:13:25;21.00;99.90
50969;DHT22;36982;51.474;7.228;2023-06-14T07:15:54;20.90;99.90
50969;DHT22;36982;51.474;7.228;2023-06-14T07:18:20;20.70;99.90
50969;DHT22;36982;51.474;7.228;2023-06-14T07:20:46;20.40;99.90
50969;DHT22;36982;51.474;7.228;2023-06-14T07:23:13;20.30;99.90
50969;DHT22;36982;51.474;7.228;2023-06-14T07:25:38;20.30;99.90
50969;DHT22;36982;51.474;7.228;2023-06-14T07:28:04;20.30;99.90
50969;DHT22;36982;51.474;7.228;2023-06-14T07:30:29;20.10;99.90
50969;DHT22;36982;51.474;7.228;2023-06-14T07:32:55;19.90;99.90
50969;DHT22;36982;51.474;7.228;2023-06-14T07:35:21;19.90;99.90
50969;DHT22;36982;51.474;7.228;2023-06-14T07:37:47;19.80;99.90
50969;DHT22;36982;51.474;7.228;2023-06-14T07:40:13;19.80;99.90
50969;DHT22;36982;51.474;7.228;2023-06-14T07:42:38;19.80;99.90
50969;DHT22;36982;51.474;7.228;2023-06-14T07:45:05;19.80;99.90
50969;DHT22;36982;51.474;7.228;2023-06-14T07:47:31;19.80;99.90
50969;DHT22;36982;51.474;7.228;2023-06-14T07:49:57;19.70;99.90
50969;DHT22;36982;51.474;7.228;2023-06-14T07:52:22;19.70;99.90
50969;DHT22;36982;51.474;7.228;2023-06-14T07:54:48;19.60;99.90
50969;DHT22;36982;51.474;7.228;2023-06-14T07:57:13;19.70;99.90
50969;DHT22;36982;51.474;7.228;2023-06-14T07:59:39;19.70;99.90
50969;DHT22;36982;51.474;7.228;2023-06-14T08:02:04;19.70;99.90
50969;DHT22;36982;51.474;7.228;2023-06-14T08:04:32;19.70;99.90
50969;DHT22;36982;51.474;7.228;2023-06-14T08:06:58;19.80;99.90
50969;DHT22;36982;51.474;7.228;2023-06-14T08:09:24;19.80;99.90
50969;DHT22;36982;51.474;7.228;2023-06-14T08:11:50;20.00;99.90
50969;DHT22;36982;51.474;7.228;2023-06-14T08:14:16;19.90;99.90
50969;DHT22;36982;51.474;7.228;2023-06-14T08:16:42;19.80;99.90
50969;DHT22;36982;51.474;7.228;2023-06-14T08:19:08;19.80;99.90
50969;DHT22;36982;51.474;7.228;2023-06-14T08:21:33;19.60;99.90
50969;DHT22;36982;51.474;7.228;2023-06-14T08:24:01;19.60;99.90
50969;DHT22;36982;51.474;7.228;2023-06-14T08:26:27;19.50;99.90
50969;DHT22;36982;51.474;7.228;2023-06-14T08:28:57;19.50;99.90
50969;DHT22;36982;51.474;7.228;2023-06-14T08:31:23;19.50;99.90
50969;DHT22;36982;51.474;7.228;2023-06-14T08:33:49;19.40;99.90
50969;DHT22;36982;51.474;7.228;2023-06-14T08:36:15;19.60;99.90
50969;DHT22;36982;51.474;7.228;2023-06-14T08:38:40;19.70;99.90
50969;DHT22;36982;51.474;7.228;2023-06-14T08:41:06;19.70;99.90
50969;DHT22;36982;51.474;7.228;2023-06-14T08:43:32;19.60;99.90
50969;DHT22;36982;51.474;7.228;2023-06-14T08:46:02;19.50;99.90
50969;DHT22;36982;51.474;7.228;2023-06-14T08:48:28;19.50;99.90
50969;DHT22;36982;51.474;7.228;2023-06-14T08:50:55;19.70;99.90
50969;DHT22;36982;51.474;7.228;2023-06-14T08:53:28;19.70;99.90
50969;DHT22;36982;51.474;7.228;2023-06-14T08:55:58;19.80;99.90
50969;DHT22;36982;51.474;7.228;2023-06-14T08:58:27;19.60;99.90
50969;DHT22;36982;51.474;7.228;2023-06-14T09:00:55;19.80;99.90
50969;DHT22;36982;51.474;7.228;2023-06-14T09:03:21;19.70;99.90
50969;DHT22;36982;51.474;7.228;2023-06-14T09:05:48;19.80;99.90
50969;DHT22;36982;51.474;7.228;2023-06-14T09:08:15;20.00;99.90
50969;DHT22;36982;51.474;7.228;2023-06-14T09:10:41;19.90;99.90
50969;DHT22;36982;51.474;7.228;2023-06-14T09:13:07;19.90;99.90
50969;DHT22;36982;51.474;7.228;2023-06-14T09:15:33;19.90;99.90
50969;DHT22;36982;51.474;7.228;2023-06-14T09:18:01;19.90;99.90
50969;DHT22;36982;51.474;7.228;2023-06-14T09:20:29;19.90;99.90
50969;DHT22;36982;51.474;7.228;2023-06-14T09:22:55;19.90;99.90
50969;DHT22;36982;51.474;7.228;2023-06-14T09:25:21;19.90;99.90
50969;DHT22;36982;51.474;7.228;2023-06-14T09:27:47;19.80;99.90
50969;DHT22;36982;51.474;7.228;2023-06-14T09:30:13;19.80;99.90
50969;DHT22;36982;51.474;7.228;2023-06-14T09:32:39;19.90;99.90
50969;DHT22;36982;51.474;7.228;2023-06-14T09:35:08;19.90;99.90
50969;DHT22;36982;51.474;7.228;2023-06-14T09:37:34;20.00;99.90
50969;DHT22;36982;51.474;7.228;2023-06-14T09:40:01;20.10;99.90
50969;DHT22;36982;51.474;7.228;2023-06-14T09:42:28;20.10;99.90
50969;DHT22;36982;51.474;7.228;2023-06-14T09:44:56;20.00;99.90
50969;DHT22;36982;51.474;7.228;2023-06-14T09:47:23;20.00;99.90
50969;DHT22;36982;51.474;7.228;2023-06-14T09:49:49;19.90;99.90
50969;DHT22;36982;51.474;7.228;2023-06-14T09:52:18;20.10;99.90
50969;DHT22;36982;51.474;7.228;2023-06-14T09:54:47;20.20;99.90
50969;DHT22;36982;51.474;7.228;2023-06-14T09:57:15;20.20;99.90
50969;DHT22;36982;51.474;7.228;2023-06-14T09:59:43;20.50;99.90
50969;DHT22;36982;51.474;7.228;2023-06-14T10:02:31;20.40;99.90
50969;DHT22;36982;51.474;7.228;2023-06-14T10:05:06;20.40;99.90
50969;DHT22;36982;51.474;7.228;2023-06-14T10:07:36;20.40;99.90
50969;DHT22;36982;51.474;7.228;2023-06-14T10:10:04;20.40;99.90
50969;DHT22;36982;51.474;7.228;2023-06-14T10:12:31;20.40;99.90
50969;DHT22;36982;51.474;7.228;2023-06-14T10:14:57;20.30;99.90
50969;DHT22;36982;51.474;7.228;2023-06-14T10:17:25;20.30;99.90
50969;DHT22;36982;51.474;7.228;2023-06-14T10:22:47;20.20;99.90
50969;DHT22;36982;51.474;7.228;2023-06-14T10:25:26;20.20;99.90
50969;DHT22;36982;51.474;7.228;2023-06-14T10:31:10;20.40;99.90
50969;DHT22;36982;51.474;7.228;2023-06-14T10:33:49;20.60;99.90
50969;DHT22;36982;51.474;7.228;2023-06-14T10:39:16;20.70;99.90
50969;DHT22;36982;51.474;7.228;2023-06-14T10:41:53;20.70;99.90
50969;DHT22;36982;51.474;7.228;2023-06-14T10:46:49;20.60;99.90
50969;DHT22;36982;51.474;7.228;2023-06-14T10:49:38;20.60;99.90
50969;DHT22;36982;51.474;7.228;2023-06-14T10:52:12;20.60;99.90
50969;DHT22;36982;51.474;7.228;2023-06-14T10:55:04;20.60;99.90
50969;DHT22;36982;51.474;7.228;2023-06-14T10:57:32;20.60;99.90
50969;DHT22;36982;51.474;7.228;2023-06-14T11:00:02;20.70;99.90
50969;DHT22;36982;51.474;7.228;2023-06-14T11:03:07;20.70;99.90
50969;DHT22;36982;51.474;7.228;2023-06-14T11:05:43;20.60;99.90
50969;DHT22;36982;51.474;7.228;2023-06-14T11:10:59;20.70;99.90
50969;DHT22;36982;51.474;7.228;2023-06-14T11:13:26;20.80;99.90
50969;DHT22;36982;51.474;7.228;2023-06-14T11:15:52;20.80;99.90
50969;DHT22;36982;51.474;7.228;2023-06-14T11:18:23;20.90;99.90
50969;DHT22;36982;51.474;7.228;2023-06-14T11:20:53;21.10;99.90
50969;DHT22;36982;51.474;7.228;2023-06-14T11:23:19;21.10;99.90
50969;DHT22;36982;51.474;7.228;2023-06-14T11:25:50;21.10;99.90
50969;DHT22;36982;51.474;7.228;2023-06-14T11:28:16;21.10;99.90
50969;DHT22;36982;51.474;7.228;2023-06-14T11:30:42;21.20;99.90
50969;DHT22;36982;51.474;7.228;2023-06-14T11:33:10;21.40;99.90
50969;DHT22;36982;51.474;7.228;2023-06-14T11:35:36;21.60;99.90
50969;DHT22;36982;51.474;7.228;2023-06-14T11:38:02;21.50;99.90
50969;DHT22;36982;51.474;7.228;2023-06-14T11:40:28;21.50;99.90
50969;DHT22;36982;51.474;7.228;2023-06-14T11:43:01;21.50;99.90
50969;DHT22;36982;51.474;7.228;2023-06-14T11:45:27;21.40;99.90
50969;DHT22;36982;51.474;7.228;2023-06-14T11:47:55;21.40;99.90
50969;DHT22;36982;51.474;7.228;2023-06-14T11:50:23;21.20;99.90
50969;DHT22;36982;51.474;7.228;2023-06-14T11:55:20;21.30;99.90
50969;DHT22;36982;51.474;7.228;2023-06-14T11:57:47;21.40;99.90
50969;DHT22;36982;51.474;7.228;2023-06-14T12:00:13;21.40;99.90
50969;DHT22;36982;51.474;7.228;2023-06-14T12:02:41;21.40;99.90
50969;DHT22;36982;51.474;7.228;2023-06-14T12:05:07;21.50;99.90
50969;DHT22;36982;51.474;7.228;2023-06-14T12:07:38;21.50;99.90
50969;DHT22;36982;51.474;7.228;2023-06-14T12:10:06;21.60;99.90
50969;DHT22;36982;51.474;7.228;2023-06-14T12:12:38;21.60;99.90
50969;DHT22;36982;51.474;7.228;2023-06-14T12:15:05;21.70;99.90
50969;DHT22;36982;51.474;7.228;2023-06-14T12:17:38;21.80;99.90
50969;DHT22;36982;51.474;7.228;2023-06-14T12:20:11;21.90;99.90
50969;DHT22;36982;51.474;7.228;2023-06-14T12:22:57;22.00;99.90
50969;DHT22;36982;51.474;7.228;2023-06-14T12:25:34;22.00;99.90
50969;DHT22;36982;51.474;7.228;2023-06-14T12:28:08;22.10;99.90
50969;DHT22;36982;51.474;7.228;2023-06-14T12:30:37;22.20;99.90
50969;DHT22;36982;51.474;7.228;2023-06-14T12:33:04;22.10;99.90
50969;DHT22;36982;51.474;7.228;2023-06-14T12:35:29;22.20;99.90
50969;DHT22;36982;51.474;7.228;2023-06-14T12:37:55;22.20;99.90
50969;DHT22;36982;51.474;7.228;2023-06-14T12:40:21;22.10;99.90
50969;DHT22;36982;51.474;7.228;2023-06-14T12:42:47;22.20;99.90
50969;DHT22;36982;51.474;7.228;2023-06-14T12:45:13;22.20;99.90
50969;DHT22;36982;51.474;7.228;2023-06-14T12:47:39;22.20;99.90
50969;DHT22;36982;51.474;7.228;2023-06-14T12:50:05;22.20;99.90
50969;DHT22;36982;51.474;7.228;2023-06-14T12:52:31;22.30;99.90
50969;DHT22;36982;51.474;7.228;2023-06-14T12:54:57;22.30;99.90
50969;DHT22;36982;51.474;7.228;2023-06-14T12:57:23;22.20;99.90
50969;DHT22;36982;51.474;7.228;2023-06-14T12:59:49;22.30;99.90
50969;DHT22;36982;51.474;7.228;2023-06-14T13:02:19;22.30;99.90
50969;DHT22;36982;51.474;7.228;2023-06-14T13:04:47;22.30;99.90
50969;DHT22;36982;51.474;7.228;2023-06-14T13:07:13;22.30;99.90
50969;DHT22;36982;51.474;7.228;2023-06-14T13:09:40;22.40;99.90
50969;DHT22;36982;51.474;7.228;2023-06-14T13:12:07;22.40;99.90
50969;DHT22;36982;51.474;7.228;2023-06-14T13:14:32;22.20;99.90
50969;DHT22;36982;51.474;7.228;2023-06-14T13:16:58;22.40;99.90
50969;DHT22;36982;51.474;7.228;2023-06-14T13:19:23;22.50;99.90
50969;DHT22;36982;51.474;7.228;2023-06-14T13:21:49;22.70;99.90
50969;DHT22;36982;51.474;7.228;2023-06-14T13:24:15;22.70;99.90
50969;DHT22;36982;51.474;7.228;2023-06-14T13:26:41;22.70;99.90
50969;DHT22;36982;51.474;7.228;2023-06-14T13:29:06;22.60;99.90
50969;DHT22;36982;51.474;7.228;2023-06-14T13:31:32;22.50;99.90
50969;DHT22;36982;51.474;7.228;2023-06-14T13:33:58;22.50;99.90
50969;DHT22;36982;51.474;7.228;2023-06-14T13:36:23;22.50;99.90
50969;DHT22;36982;51.474;7.228;2023-06-14T13:38:49;22.60;99.90
50969;DHT22;36982;51.474;7.228;2023-06-14T13:41:16;22.70;99.90
50969;DHT22;36982;51.474;7.228;2023-06-14T13:43:42;22.80;99.90
50969;DHT22;36982;51.474;7.228;2023-06-14T13:46:07;22.90;99.90
50969;DHT22;36982;51.474;7.228;2023-06-14T13:48:33;22.90;99.90
50969;DHT22;36982;51.474;7.228;2023-06-14T13:51:00;23.00;99.90
50969;DHT22;36982;51.474;7.228;2023-06-14T13:53:26;23.00;99.90
50969;DHT22;36982;51.474;7.228;2023-06-14T13:55:52;22.80;99.90
50969;DHT22;36982;51.474;7.228;2023-06-14T13:58:18;22.80;99.90
50969;DHT22;36982;51.474;7.228;2023-06-14T14:00:44;22.80;99.90
50969;DHT22;36982;51.474;7.228;2023-06-14T14:03:09;23.00;99.90
50969;DHT22;36982;51.474;7.228;2023-06-14T14:05:35;23.00;99.90
50969;DHT22;36982;51.474;7.228;2023-06-14T14:08:01;22.90;99.90
50969;DHT22;36982;51.474;7.228;2023-06-14T14:10:27;23.00;99.90
50969;DHT22;36982;51.474;7.228;2023-06-14T14:12:52;23.00;99.90
50969;DHT22;36982;51.474;7.228;2023-06-14T14:15:20;22.90;99.90
50969;DHT22;36982;51.474;7.228;2023-06-14T14:17:45;22.80;99.90
50969;DHT22;36982;51.474;7.228;2023-06-14T14:20:12;22.90;99.90
50969;DHT22;36982;51.474;7.228;2023-06-14T14:22:43;22.90;99.90
50969;DHT22;36982;51.474;7.228;2023-06-14T14:25:09;23.00;99.90
50969;DHT22;36982;51.474;7.228;2023-06-14T14:27:36;23.00;99.90
50969;DHT22;36982;51.474;7.228;2023-06-14T14:30:03;23.00;99.90
50969;DHT22;36982;51.474;7.228;2023-06-14T14:32:29;23.10;99.90
50969;DHT22;36982;51.474;7.228;2023-06-14T14:34:54;23.30;99.90
50969;DHT22;36982;51.474;7.228;2023-06-14T14:37:20;23.30;99.90
50969;DHT22;36982;51.474;7.228;2023-06-14T14:39:46;23.30;99.90
50969;DHT22;36982;51.474;7.228;2023-06-14T14:42:12;23.20;99.90
50969;DHT22;36982;51.474;7.228;2023-06-14T14:44:38;23.10;99.90
50969;DHT22;36982;51.474;7.228;2023-06-14T14:47:05;22.90;99.90
50969;DHT22;36982;51.474;7.228;2023-06-14T14:49:31;23.00;99.90
50969;DHT22;36982;51.474;7.228;2023-06-14T14:51:57;23.00;99.90
50969;DHT22;36982;51.474;7.228;2023-06-14T14:54:22;23.20;99.90
50969;DHT22;36982;51.474;7.228;2023-06-14T14:56:48;23.30;99.90
50969;DHT22;36982;51.474;7.228;2023-06-14T14:59:14;23.30;99.90
50969;DHT22;36982;51.474;7.228;2023-06-14T15:01:40;23.30;99.90
50969;DHT22;36982;51.474;7.228;2023-06-14T15:04:05;23.30;99.90
50969;DHT22;36982;51.474;7.228;2023-06-14T15:06:31;23.30;99.90
50969;DHT22;36982;51.474;7.228;2023-06-14T15:08:57;23.40;99.90
50969;DHT22;36982;51.474;7.228;2023-06-14T15:11:22;23.50;99.90
50969;DHT22;36982;51.474;7.228;2023-06-14T15:13:55;23.50;99.90
50969;DHT22;36982;51.474;7.228;2023-06-14T15:16:21;23.40;99.90
50969;DHT22;36982;51.474;7.228;2023-06-14T15:18:46;23.30;99.90
50969;DHT22;36982;51.474;7.228;2023-06-14T15:21:12;23.30;99.90
50969;DHT22;36982;51.474;7.228;2023-06-14T15:23:38;23.40;99.90
50969;DHT22;36982;51.474;7.228;2023-06-14T15:26:04;23.60;99.90
50969;DHT22;36982;51.474;7.228;2023-06-14T15:28:29;23.70;99.90
50969;DHT22;36982;51.474;7.228;2023-06-14T15:31:01;23.70;99.90
50969;DHT22;36982;51.474;7.228;2023-06-14T15:33:27;23.70;99.90
50969;DHT22;36982;51.474;7.228;2023-06-14T15:35:52;23.60;99.90
50969;DHT22;36982;51.474;7.228;2023-06-14T15:38:20;23.50;99.90
50969;DHT22;36982;51.474;7.228;2023-06-14T15:40:47;23.50;99.90
50969;DHT22;36982;51.474;7.228;2023-06-14T15:43:12;23.50;99.90
50969;DHT22;36982;51.474;7.228;2023-06-14T15:45:38;23.40;99.90
50969;DHT22;36982;51.474;7.228;2023-06-14T15:48:04;23.50;99.90
50969;DHT22;36982;51.474;7.228;2023-06-14T15:50:30;23.50;99.90
50969;DHT22;36982;51.474;7.228;2023-06-14T15:52:56;23.50;99.90